sensor_id;sensor_type;location;lat;lon;timestamp;pressure;altitude;pressure_sealevel;temperature;humidity
69058;BME280;56128;37.534;-122.308;2022-09-09T00:04:00;100174.78;;;35.24;25.93
69058;BME280;56128;37.534;-122.308;2022-09-09T00:06:36;100176.13;;;35.27;25.36
69058;BME280;56128;37.534;-122.308;2022-09-09T00:09:17;100167.53;;;35.23;25.63
69058;BME280;56128;37.534;-122.308;2022-09-09T00:12:25;100167.31;;;35.20;26.06
69058;BME280;56128;37.534;-122.308;2022-09-09T00:15:14;100167.75;;;35.08;26.21
69058;BME280;56128;37.534;-122.308;2022-09-09T00:18:01;100169.00;;;34.97;27.26
69058;BME280;56128;37.534;-122.308;2022-09-09T00:23:29;100159.34;;;34.84;27.20
69058;BME280;56128;37.534;-122.308;2022-09-09T00:28:28;100166.22;;;34.67;26.95
69058;BME280;56128;37.534;-122.308;2022-09-09T00:31:08;100169.84;;;34.68;25.67
69058;BME280;56128;37.534;-122.308;2022-09-09T00:33:37;100159.03;;;34.61;23.32
69058;BME280;56128;37.534;-122.308;2022-09-09T00:36:12;100166.13;;;34.77;19.13
69058;BME280;56128;37.534;-122.308;2022-09-09T00:38:44;100168.59;;;34.79;20.64
69058;BME280;56128;37.534;-122.308;2022-09-09T00:44:20;100158.66;;;34.73;21.08
69058;BME280;56128;37.534;-122.308;2022-09-09T00:46:56;100153.44;;;34.66;19.90
69058;BME280;56128;37.534;-122.308;2022-09-09T00:57:58;100151.56;;;34.27;21.56
69058;BME280;56128;37.534;-122.308;2022-09-09T01:00:27;100150.00;;;34.15;20.65
69058;BME280;56128;37.534;-122.308;2022-09-09T01:06:15;100156.03;;;33.93;22.34
69058;BME280;56128;37.534;-122.308;2022-09-09T01:08:53;100151.38;;;33.78;21.88
69058;BME280;56128;37.534;-122.308;2022-09-09T01:16:44;100144.28;;;33.57;22.71
69058;BME280;56128;37.534;-122.308;2022-09-09T01:19:18;100138.50;;;33.48;23.22
69058;BME280;56128;37.534;-122.308;2022-09-09T01:21:56;100144.94;;;33.43;28.32
69058;BME280;56128;37.534;-122.308;2022-09-09T01:27:01;100149.59;;;32.67;30.62
69058;BME280;56128;37.534;-122.308;2022-09-09T01:29:28;100143.28;;;32.35;31.29
69058;BME280;56128;37.534;-122.308;2022-09-09T01:31:57;100143.81;;;32.22;31.83
69058;BME280;56128;37.534;-122.308;2022-09-09T01:34:28;100144.63;;;32.02;32.07
69058;BME280;56128;37.534;-122.308;2022-09-09T01:39:25;100138.88;;;31.24;33.32
69058;BME280;56128;37.534;-122.308;2022-09-09T01:41:53;100152.06;;;31.07;33.74
69058;BME280;56128;37.534;-122.308;2022-09-09T01:44:20;100149.78;;;30.88;33.99
69058;BME280;56128;37.534;-122.308;2022-09-09T01:46:47;100148.53;;;30.69;34.63
69058;BME280;56128;37.534;-122.308;2022-09-09T01:49:13;100156.16;;;30.51;35.35
69058;BME280;56128;37.534;-122.308;2022-09-09T01:51:40;100150.25;;;30.42;35.19
69058;BME280;56128;37.534;-122.308;2022-09-09T01:54:08;100150.91;;;30.17;35.77
69058;BME280;56128;37.534;-122.308;2022-09-09T02:09:55;100138.53;;;28.76;39.72
69058;BME280;56128;37.534;-122.308;2022-09-09T02:12:24;100131.59;;;28.40;40.08
69058;BME280;56128;37.534;-122.308;2022-09-09T02:14:56;100130.13;;;28.15;40.91
69058;BME280;56128;37.534;-122.308;2022-09-09T02:17:30;100129.94;;;28.05;41.12
69058;BME280;56128;37.534;-122.308;2022-09-09T02:20:07;100135.75;;;27.91;41.44
69058;BME280;56128;37.534;-122.308;2022-09-09T02:22:36;100140.75;;;27.65;41.75
69058;BME280;56128;37.534;-122.308;2022-09-09T02:25:07;100133.34;;;27.37;42.02
69058;BME280;56128;37.534;-122.308;2022-09-09T02:27:34;100139.13;;;27.12;42.94
69058;BME280;56128;37.534;-122.308;2022-09-09T02:30:02;100135.22;;;26.96;42.90
69058;BME280;56128;37.534;-122.308;2022-09-09T02:32:30;100133.69;;;26.88;42.63
69058;BME280;56128;37.534;-122.308;2022-09-09T02:35:02;100141.69;;;26.78;43.50
69058;BME280;56128;37.534;-122.308;2022-09-09T02:37:35;100151.69;;;26.60;43.98
69058;BME280;56128;37.534;-122.308;2022-09-09T02:40:04;100155.97;;;26.32;44.90
69058;BME280;56128;37.534;-122.308;2022-09-09T02:42:31;100155.22;;;26.25;44.86
69058;BME280;56128;37.534;-122.308;2022-09-09T02:44:58;100155.34;;;26.06;45.56
69058;BME280;56128;37.534;-122.308;2022-09-09T02:47:38;100159.44;;;25.97;45.79
69058;BME280;56128;37.534;-122.308;2022-09-09T02:55:29;100167.53;;;25.62;46.42
69058;BME280;56128;37.534;-122.308;2022-09-09T02:58:05;100163.22;;;25.54;46.43
69058;BME280;56128;37.534;-122.308;2022-09-09T03:00:33;100167.94;;;25.28;46.91
69058;BME280;56128;37.534;-122.308;2022-09-09T03:03:03;100170.59;;;25.16;47.49
69058;BME280;56128;37.534;-122.308;2022-09-09T03:05:30;100171.53;;;25.10;47.53
69058;BME280;56128;37.534;-122.308;2022-09-09T03:07:56;100162.31;;;25.04;47.66
69058;BME280;56128;37.534;-122.308;2022-09-09T03:10:22;100163.69;;;24.95;48.04
69058;BME280;56128;37.534;-122.308;2022-09-09T03:12:48;100171.25;;;24.74;48.39
69058;BME280;56128;37.534;-122.308;2022-09-09T03:15:16;100168.16;;;24.64;48.81
69058;BME280;56128;37.534;-122.308;2022-09-09T03:17:44;100173.75;;;24.51;49.28
69058;BME280;56128;37.534;-122.308;2022-09-09T03:20:10;100180.50;;;24.48;49.61
69058;BME280;56128;37.534;-122.308;2022-09-09T03:22:38;100189.22;;;24.38;49.93
69058;BME280;56128;37.534;-122.308;2022-09-09T03:25:05;100185.06;;;24.29;49.87
69058;BME280;56128;37.534;-122.308;2022-09-09T03:27:31;100185.97;;;24.23;50.13
69058;BME280;56128;37.534;-122.308;2022-09-09T03:29:58;100198.41;;;24.19;50.41
69058;BME280;56128;37.534;-122.308;2022-09-09T03:32:24;100183.13;;;24.04;50.98
69058;BME280;56128;37.534;-122.308;2022-09-09T03:34:52;100198.31;;;24.00;51.61
69058;BME280;56128;37.534;-122.308;2022-09-09T03:37:19;100188.50;;;23.92;51.47
69058;BME280;56128;37.534;-122.308;2022-09-09T03:39:45;100186.38;;;23.88;51.85
69058;BME280;56128;37.534;-122.308;2022-09-09T03:42:15;100183.91;;;23.79;51.30
69058;BME280;56128;37.534;-122.308;2022-09-09T03:44:44;100195.50;;;23.75;52.31
69058;BME280;56128;37.534;-122.308;2022-09-09T03:47:17;100188.22;;;23.62;53.23
69058;BME280;56128;37.534;-122.308;2022-09-09T03:49:44;100186.16;;;23.50;53.74
69058;BME280;56128;37.534;-122.308;2022-09-09T03:52:10;100200.47;;;23.46;53.85
69058;BME280;56128;37.534;-122.308;2022-09-09T03:54:37;100216.25;;;23.37;54.60
69058;BME280;56128;37.534;-122.308;2022-09-09T03:57:04;100218.59;;;23.27;54.75
69058;BME280;56128;37.534;-122.308;2022-09-09T03:59:30;100228.22;;;23.23;54.39
69058;BME280;56128;37.534;-122.308;2022-09-09T04:01:56;100228.03;;;23.11;54.06
69058;BME280;56128;37.534;-122.308;2022-09-09T04:04:24;100236.84;;;23.06;54.17
69058;BME280;56128;37.534;-122.308;2022-09-09T04:06:52;100236.66;;;23.01;54.13
69058;BME280;56128;37.534;-122.308;2022-09-09T04:09:18;100237.91;;;22.85;53.86
69058;BME280;56128;37.534;-122.308;2022-09-09T04:11:45;100254.91;;;22.74;54.24
69058;BME280;56128;37.534;-122.308;2022-09-09T04:14:12;100253.88;;;22.54;54.24
69058;BME280;56128;37.534;-122.308;2022-09-09T04:16:38;100248.22;;;22.43;54.52
69058;BME280;56128;37.534;-122.308;2022-09-09T04:19:05;100257.81;;;22.32;54.59
69058;BME280;56128;37.534;-122.308;2022-09-09T04:21:33;100257.16;;;22.30;54.64
69058;BME280;56128;37.534;-122.308;2022-09-09T04:23:59;100245.44;;;22.29;54.43
69058;BME280;56128;37.534;-122.308;2022-09-09T04:26:25;100249.41;;;22.20;54.93
69058;BME280;56128;37.534;-122.308;2022-09-09T04:28:51;100235.50;;;21.95;55.27
69058;BME280;56128;37.534;-122.308;2022-09-09T04:31:20;100252.09;;;22.00;55.22
69058;BME280;56128;37.534;-122.308;2022-09-09T04:33:49;100252.47;;;21.97;55.05
69058;BME280;56128;37.534;-122.308;2022-09-09T04:36:15;100250.78;;;21.89;55.53
69058;BME280;56128;37.534;-122.308;2022-09-09T04:38:42;100254.75;;;21.80;55.95
69058;BME280;56128;37.534;-122.308;2022-09-09T04:41:10;100261.19;;;21.72;56.09
69058;BME280;56128;37.534;-122.308;2022-09-09T04:43:37;100269.53;;;21.64;56.37
69058;BME280;56128;37.534;-122.308;2022-09-09T04:46:04;100253.91;;;21.44;56.21
69058;BME280;56128;37.534;-122.308;2022-09-09T04:48:31;100263.53;;;21.40;56.46
69058;BME280;56128;37.534;-122.308;2022-09-09T04:51:03;100269.75;;;21.34;56.87
69058;BME280;56128;37.534;-122.308;2022-09-09T04:53:30;100277.69;;;21.29;57.03
69058;BME280;56128;37.534;-122.308;2022-09-09T04:56:14;100265.91;;;21.21;57.22
69058;BME280;56128;37.534;-122.308;2022-09-09T04:58:41;100272.81;;;21.17;56.97
69058;BME280;56128;37.534;-122.308;2022-09-09T05:01:19;100264.41;;;21.12;57.36
69058;BME280;56128;37.534;-122.308;2022-09-09T05:03:47;100265.81;;;21.08;57.09
69058;BME280;56128;37.534;-122.308;2022-09-09T05:06:16;100268.13;;;21.04;57.20
69058;BME280;56128;37.534;-122.308;2022-09-09T05:08:43;100270.53;;;20.92;57.87
69058;BME280;56128;37.534;-122.308;2022-09-09T05:11:17;100262.34;;;20.86;56.69
69058;BME280;56128;37.534;-122.308;2022-09-09T05:13:44;100257.88;;;20.78;56.57
69058;BME280;56128;37.534;-122.308;2022-09-09T05:16:11;100249.81;;;20.70;56.69
69058;BME280;56128;37.534;-122.308;2022-09-09T05:18:39;100256.25;;;20.62;56.48
69058;BME280;56128;37.534;-122.308;2022-09-09T05:21:06;100248.66;;;20.57;56.61
69058;BME280;56128;37.534;-122.308;2022-09-09T05:23:34;100241.28;;;20.51;56.45
69058;BME280;56128;37.534;-122.308;2022-09-09T05:26:01;100249.00;;;20.48;56.86
69058;BME280;56128;37.534;-122.308;2022-09-09T05:28:28;100241.78;;;20.33;57.32
69058;BME280;56128;37.534;-122.308;2022-09-09T05:31:02;100241.44;;;20.21;57.63
69058;BME280;56128;37.534;-122.308;2022-09-09T05:33:34;100241.81;;;20.18;58.14
69058;BME280;56128;37.534;-122.308;2022-09-09T05:36:06;100239.88;;;20.12;58.15
69058;BME280;56128;37.534;-122.308;2022-09-09T05:38:34;100239.22;;;20.10;58.12
69058;BME280;56128;37.534;-122.308;2022-09-09T05:41:02;100237.28;;;20.04;58.89
69058;BME280;56128;37.534;-122.308;2022-09-09T05:43:29;100243.31;;;19.99;59.08
69058;BME280;56128;37.534;-122.308;2022-09-09T05:46:15;100248.84;;;19.91;60.32
69058;BME280;56128;37.534;-122.308;2022-09-09T05:48:44;100249.25;;;19.88;59.95
69058;BME280;56128;37.534;-122.308;2022-09-09T05:51:19;100249.09;;;19.81;60.48
69058;BME280;56128;37.534;-122.308;2022-09-09T05:53:46;100238.19;;;19.74;61.83
69058;BME280;56128;37.534;-122.308;2022-09-09T05:56:18;100245.94;;;19.62;62.11
69058;BME280;56128;37.534;-122.308;2022-09-09T05:58:44;100234.00;;;19.57;63.03
69058;BME280;56128;37.534;-122.308;2022-09-09T06:01:14;100231.56;;;19.47;63.02
69058;BME280;56128;37.534;-122.308;2022-09-09T06:03:42;100230.47;;;19.41;63.31
69058;BME280;56128;37.534;-122.308;2022-09-09T06:06:11;100229.34;;;19.36;63.74
69058;BME280;56128;37.534;-122.308;2022-09-09T06:08:39;100237.19;;;19.30;64.07
69058;BME280;56128;37.534;-122.308;2022-09-09T06:11:14;100243.75;;;19.21;65.19
69058;BME280;56128;37.534;-122.308;2022-09-09T06:13:41;100237.66;;;19.19;65.76
69058;BME280;56128;37.534;-122.308;2022-09-09T06:16:13;100228.97;;;19.09;66.21
69058;BME280;56128;37.534;-122.308;2022-09-09T06:18:40;100241.59;;;19.17;65.42
69058;BME280;56128;37.534;-122.308;2022-09-09T06:21:17;100244.22;;;19.10;65.86
69058;BME280;56128;37.534;-122.308;2022-09-09T06:23:43;100252.72;;;19.07;66.28
69058;BME280;56128;37.534;-122.308;2022-09-09T06:28:38;100236.09;;;18.87;66.74
69058;BME280;56128;37.534;-122.308;2022-09-09T06:31:06;100244.25;;;18.87;66.97
69058;BME280;56128;37.534;-122.308;2022-09-09T06:33:34;100248.50;;;18.81;67.12
69058;BME280;56128;37.534;-122.308;2022-09-09T06:36:02;100254.69;;;18.75;68.31
69058;BME280;56128;37.534;-122.308;2022-09-09T06:38:29;100252.72;;;18.69;68.11
69058;BME280;56128;37.534;-122.308;2022-09-09T06:40:58;100258.78;;;18.71;67.65
69058;BME280;56128;37.534;-122.308;2022-09-09T06:43:27;100256.78;;;18.64;67.38
69058;BME280;56128;37.534;-122.308;2022-09-09T06:45:58;100254.47;;;18.61;68.65
69058;BME280;56128;37.534;-122.308;2022-09-09T06:48:25;100236.91;;;18.57;69.20
69058;BME280;56128;37.534;-122.308;2022-09-09T06:51:05;100233.88;;;18.52;69.27
69058;BME280;56128;37.534;-122.308;2022-09-09T06:53:33;100221.91;;;18.46;69.44
69058;BME280;56128;37.534;-122.308;2022-09-09T06:56:22;100215.81;;;18.44;69.62
69058;BME280;56128;37.534;-122.308;2022-09-09T06:58:51;100213.00;;;18.38;69.77
69058;BME280;56128;37.534;-122.308;2022-09-09T07:01:25;100208.13;;;18.33;69.83
69058;BME280;56128;37.534;-122.308;2022-09-09T07:03:54;100204.09;;;18.29;70.32
69058;BME280;56128;37.534;-122.308;2022-09-09T07:06:22;100200.09;;;18.25;69.76
69058;BME280;56128;37.534;-122.308;2022-09-09T07:08:51;100196.22;;;18.19;70.29
69058;BME280;56128;37.534;-122.308;2022-09-09T07:11:18;100192.88;;;18.17;71.35
69058;BME280;56128;37.534;-122.308;2022-09-09T07:13:45;100182.91;;;18.09;71.31
69058;BME280;56128;37.534;-122.308;2022-09-09T07:16:14;100183.09;;;18.08;72.88
69058;BME280;56128;37.534;-122.308;2022-09-09T07:18:40;100181.41;;;18.07;73.19
69058;BME280;56128;37.534;-122.308;2022-09-09T07:21:12;100175.88;;;18.00;73.18
69058;BME280;56128;37.534;-122.308;2022-09-09T07:23:39;100172.34;;;17.99;72.95
69058;BME280;56128;37.534;-122.308;2022-09-09T07:26:17;100173.38;;;17.98;72.79
69058;BME280;56128;37.534;-122.308;2022-09-09T07:28:47;100166.63;;;17.94;73.10
69058;BME280;56128;37.534;-122.308;2022-09-09T07:31:16;100166.28;;;17.89;72.62
69058;BME280;56128;37.534;-122.308;2022-09-09T07:33:43;100161.06;;;17.88;72.14
69058;BME280;56128;37.534;-122.308;2022-09-09T07:36:13;100160.94;;;17.81;72.13
69058;BME280;56128;37.534;-122.308;2022-09-09T07:38:42;100175.97;;;17.83;72.80
69058;BME280;56128;37.534;-122.308;2022-09-09T07:41:13;100173.09;;;17.85;72.58
69058;BME280;56128;37.534;-122.308;2022-09-09T07:43:44;100174.47;;;17.81;72.39
69058;BME280;56128;37.534;-122.308;2022-09-09T07:46:17;100181.38;;;17.83;71.85
69058;BME280;56128;37.534;-122.308;2022-09-09T07:48:46;100170.06;;;17.80;72.62
69058;BME280;56128;37.534;-122.308;2022-09-09T07:51:17;100172.81;;;17.72;72.55
69058;BME280;56128;37.534;-122.308;2022-09-09T07:53:45;100168.97;;;17.66;72.87
69058;BME280;56128;37.534;-122.308;2022-09-09T07:56:14;100171.38;;;17.61;72.56
69058;BME280;56128;37.534;-122.308;2022-09-09T07:58:44;100174.63;;;17.56;72.93
69058;BME280;56128;37.534;-122.308;2022-09-09T08:01:16;100182.72;;;17.56;73.67
69058;BME280;56128;37.534;-122.308;2022-09-09T08:03:47;100187.66;;;17.52;73.73
69058;BME280;56128;37.534;-122.308;2022-09-09T08:06:13;100187.16;;;17.49;73.27
69058;BME280;56128;37.534;-122.308;2022-09-09T08:08:40;100184.44;;;17.49;73.75
69058;BME280;56128;37.534;-122.308;2022-09-09T08:11:12;100183.94;;;17.45;74.23
69058;BME280;56128;37.534;-122.308;2022-09-09T08:13:41;100167.91;;;17.44;73.52
69058;BME280;56128;37.534;-122.308;2022-09-09T08:16:19;100173.44;;;17.50;73.53
69058;BME280;56128;37.534;-122.308;2022-09-09T08:18:48;100161.47;;;17.53;73.17
69058;BME280;56128;37.534;-122.308;2022-09-09T08:21:20;100170.28;;;17.47;73.43
69058;BME280;56128;37.534;-122.308;2022-09-09T08:23:47;100166.19;;;17.51;73.71
69058;BME280;56128;37.534;-122.308;2022-09-09T08:26:18;100163.81;;;17.48;74.06
69058;BME280;56128;37.534;-122.308;2022-09-09T08:28:53;100153.91;;;17.40;74.65
69058;BME280;56128;37.534;-122.308;2022-09-09T08:31:27;100160.16;;;17.41;74.76
69058;BME280;56128;37.534;-122.308;2022-09-09T08:33:57;100158.31;;;17.33;74.47
69058;BME280;56128;37.534;-122.308;2022-09-09T08:36:27;100154.84;;;17.24;74.25
69058;BME280;56128;37.534;-122.308;2022-09-09T08:38:56;100151.16;;;17.17;75.62
69058;BME280;56128;37.534;-122.308;2022-09-09T08:44:22;100153.56;;;17.03;75.40
69058;BME280;56128;37.534;-122.308;2022-09-09T08:52:23;100127.94;;;16.75;76.51
69058;BME280;56128;37.534;-122.308;2022-09-09T08:54:51;100141.28;;;16.76;76.67
69058;BME280;56128;37.534;-122.308;2022-09-09T08:57:26;100134.91;;;16.69;76.83
69058;BME280;56128;37.534;-122.308;2022-09-09T08:59:54;100142.16;;;16.60;76.95
69058;BME280;56128;37.534;-122.308;2022-09-09T09:02:32;100150.44;;;16.59;78.25
69058;BME280;56128;37.534;-122.308;2022-09-09T09:05:10;100136.28;;;16.57;78.65
69058;BME280;56128;37.534;-122.308;2022-09-09T09:10:45;100135.25;;;16.41;78.69
69058;BME280;56128;37.534;-122.308;2022-09-09T09:13:24;100137.81;;;16.34;78.38
69058;BME280;56128;37.534;-122.308;2022-09-09T09:16:00;100131.41;;;16.27;78.15
69058;BME280;56128;37.534;-122.308;2022-09-09T09:18:30;100125.84;;;16.20;78.27
69058;BME280;56128;37.534;-122.308;2022-09-09T09:21:15;100121.44;;;16.11;78.73
69058;BME280;56128;37.534;-122.308;2022-09-09T09:23:58;100115.03;;;16.12;79.82
69058;BME280;56128;37.534;-122.308;2022-09-09T09:26:38;100102.41;;;16.04;79.63
69058;BME280;56128;37.534;-122.308;2022-09-09T09:29:16;100098.34;;;16.00;79.51
69058;BME280;56128;37.534;-122.308;2022-09-09T09:31:47;100098.03;;;15.95;79.39
69058;BME280;56128;37.534;-122.308;2022-09-09T09:34:14;100100.22;;;15.92;79.01
69058;BME280;56128;37.534;-122.308;2022-09-09T09:36:46;100100.88;;;15.85;79.29
69058;BME280;56128;37.534;-122.308;2022-09-09T09:39:31;100114.00;;;15.80;79.54
69058;BME280;56128;37.534;-122.308;2022-09-09T09:42:13;100102.69;;;15.77;80.32
69058;BME280;56128;37.534;-122.308;2022-09-09T09:44:40;100119.06;;;15.75;80.15
69058;BME280;56128;37.534;-122.308;2022-09-09T09:49:50;100112.47;;;15.69;81.08
69058;BME280;56128;37.534;-122.308;2022-09-09T09:52:22;100104.03;;;15.64;81.77
69058;BME280;56128;37.534;-122.308;2022-09-09T09:54:50;100093.91;;;15.58;81.94
69058;BME280;56128;37.534;-122.308;2022-09-09T09:57:18;100086.16;;;15.55;81.92
69058;BME280;56128;37.534;-122.308;2022-09-09T10:02:41;100076.69;;;15.51;80.93
69058;BME280;56128;37.534;-122.308;2022-09-09T10:05:29;100084.63;;;15.44;81.36
69058;BME280;56128;37.534;-122.308;2022-09-09T10:08:09;100079.41;;;15.42;82.34
69058;BME280;56128;37.534;-122.308;2022-09-09T10:16:07;100070.44;;;15.34;83.49
69058;BME280;56128;37.534;-122.308;2022-09-09T10:18:37;100069.94;;;15.30;82.60
69058;BME280;56128;37.534;-122.308;2022-09-09T10:27:03;100066.88;;;15.17;83.95
69058;BME280;56128;37.534;-122.308;2022-09-09T10:34:56;100061.78;;;15.05;84.70
69058;BME280;56128;37.534;-122.308;2022-09-09T10:40:18;100058.56;;;14.93;85.71
69058;BME280;56128;37.534;-122.308;2022-09-09T10:42:46;100040.53;;;14.86;85.04
69058;BME280;56128;37.534;-122.308;2022-09-09T10:45:36;100043.53;;;14.83;85.76
69058;BME280;56128;37.534;-122.308;2022-09-09T10:54:04;100040.75;;;14.66;85.37
69058;BME280;56128;37.534;-122.308;2022-09-09T10:56:34;100047.28;;;14.64;85.52
69058;BME280;56128;37.534;-122.308;2022-09-09T10:59:14;100046.44;;;14.63;85.94
69058;BME280;56128;37.534;-122.308;2022-09-09T11:01:49;100039.69;;;14.59;86.34
69058;BME280;56128;37.534;-122.308;2022-09-09T11:04:27;100052.78;;;14.54;86.99
69058;BME280;56128;37.534;-122.308;2022-09-09T11:07:00;100049.75;;;14.49;87.44
69058;BME280;56128;37.534;-122.308;2022-09-09T11:09:35;100036.22;;;14.40;87.68
69058;BME280;56128;37.534;-122.308;2022-09-09T11:12:03;100050.22;;;14.44;86.96
69058;BME280;56128;37.534;-122.308;2022-09-09T11:17:23;100038.88;;;14.32;87.32
69058;BME280;56128;37.534;-122.308;2022-09-09T11:19:50;100036.50;;;14.29;88.38
69058;BME280;56128;37.534;-122.308;2022-09-09T11:25:21;100035.97;;;14.25;87.15
69058;BME280;56128;37.534;-122.308;2022-09-09T11:30:50;100031.91;;;14.21;89.53
69058;BME280;56128;37.534;-122.308;2022-09-09T11:39:34;100023.41;;;14.08;88.57
69058;BME280;56128;37.534;-122.308;2022-09-09T11:44:39;100024.22;;;14.00;89.21
69058;BME280;56128;37.534;-122.308;2022-09-09T11:47:29;100032.78;;;13.95;88.89
69058;BME280;56128;37.534;-122.308;2022-09-09T11:50:26;100028.56;;;13.93;89.11
69058;BME280;56128;37.534;-122.308;2022-09-09T11:55:39;100027.66;;;13.84;89.53
69058;BME280;56128;37.534;-122.308;2022-09-09T11:58:15;100027.31;;;13.87;91.64
69058;BME280;56128;37.534;-122.308;2022-09-09T12:00:48;100020.75;;;13.82;90.56
69058;BME280;56128;37.534;-122.308;2022-09-09T12:03:34;100022.19;;;13.76;90.67
69058;BME280;56128;37.534;-122.308;2022-09-09T12:06:19;100023.66;;;13.70;90.13
69058;BME280;56128;37.534;-122.308;2022-09-09T12:08:56;100013.69;;;13.62;90.22
69058;BME280;56128;37.534;-122.308;2022-09-09T12:11:28;100012.84;;;13.62;90.60
69058;BME280;56128;37.534;-122.308;2022-09-09T12:13:59;100018.38;;;13.60;89.92
69058;BME280;56128;37.534;-122.308;2022-09-09T12:16:37;100024.91;;;13.58;90.13
69058;BME280;56128;37.534;-122.308;2022-09-09T12:19:19;100003.50;;;13.48;90.34
69058;BME280;56128;37.534;-122.308;2022-09-09T12:22:26;100005.03;;;13.51;90.76
69058;BME280;56128;37.534;-122.308;2022-09-09T12:30:24;100001.88;;;13.37;90.81
69058;BME280;56128;37.534;-122.308;2022-09-09T12:33:11;99996.09;;;13.32;90.55
69058;BME280;56128;37.534;-122.308;2022-09-09T12:35:44;99998.06;;;13.30;90.82
69058;BME280;56128;37.534;-122.308;2022-09-09T12:38:32;99987.94;;;13.24;91.93
69058;BME280;56128;37.534;-122.308;2022-09-09T12:40:59;99981.56;;;13.25;93.24
69058;BME280;56128;37.534;-122.308;2022-09-09T12:43:27;99978.66;;;13.18;92.41
69058;BME280;56128;37.534;-122.308;2022-09-09T12:46:00;99984.88;;;13.19;92.55
69058;BME280;56128;37.534;-122.308;2022-09-09T12:48:40;99991.94;;;13.20;92.71
69058;BME280;56128;37.534;-122.308;2022-09-09T12:51:24;99997.94;;;13.13;92.59
69058;BME280;56128;37.534;-122.308;2022-09-09T12:53:52;99994.25;;;13.14;93.29
69058;BME280;56128;37.534;-122.308;2022-09-09T12:56:23;99987.50;;;13.10;93.69
69058;BME280;56128;37.534;-122.308;2022-09-09T12:58:53;99977.75;;;13.09;93.17
69058;BME280;56128;37.534;-122.308;2022-09-09T13:01:26;99973.22;;;13.10;93.70
69058;BME280;56128;37.534;-122.308;2022-09-09T13:03:54;99971.13;;;13.04;93.97
69058;BME280;56128;37.534;-122.308;2022-09-09T13:06:31;99979.72;;;13.07;95.05
69058;BME280;56128;37.534;-122.308;2022-09-09T13:08:59;99978.03;;;13.06;94.79
69058;BME280;56128;37.534;-122.308;2022-09-09T13:11:30;99974.53;;;13.06;95.28
69058;BME280;56128;37.534;-122.308;2022-09-09T13:14:00;99975.50;;;13.05;95.92
69058;BME280;56128;37.534;-122.308;2022-09-09T13:16:34;99975.66;;;13.03;95.33
69058;BME280;56128;37.534;-122.308;2022-09-09T13:19:08;99978.97;;;12.97;95.12
69058;BME280;56128;37.534;-122.308;2022-09-09T13:21:36;99977.28;;;12.96;94.89
69058;BME280;56128;37.534;-122.308;2022-09-09T13:24:05;99969.16;;;12.88;95.04
69058;BME280;56128;37.534;-122.308;2022-09-09T13:26:33;99994.84;;;12.90;95.59
69058;BME280;56128;37.534;-122.308;2022-09-09T13:29:19;99989.63;;;12.89;95.59
69058;BME280;56128;37.534;-122.308;2022-09-09T13:31:45;99981.88;;;12.86;96.26
69058;BME280;56128;37.534;-122.308;2022-09-09T13:34:27;99989.53;;;12.80;96.40
69058;BME280;56128;37.534;-122.308;2022-09-09T13:36:59;99994.19;;;12.78;96.65
69058;BME280;56128;37.534;-122.308;2022-09-09T13:39:28;99993.53;;;12.76;95.90
69058;BME280;56128;37.534;-122.308;2022-09-09T13:41:54;99995.50;;;12.74;95.72
69058;BME280;56128;37.534;-122.308;2022-09-09T13:44:27;99994.50;;;12.75;96.90
69058;BME280;56128;37.534;-122.308;2022-09-09T13:47:17;99993.13;;;12.71;96.77
69058;BME280;56128;37.534;-122.308;2022-09-09T13:49:44;99992.13;;;12.72;97.15
69058;BME280;56128;37.534;-122.308;2022-09-09T13:52:13;99995.81;;;12.71;97.73
69058;BME280;56128;37.534;-122.308;2022-09-09T13:54:41;100000.16;;;12.72;96.75
69058;BME280;56128;37.534;-122.308;2022-09-09T13:57:22;100003.00;;;12.71;97.00
69058;BME280;56128;37.534;-122.308;2022-09-09T13:59:50;100012.44;;;12.75;96.80
69058;BME280;56128;37.534;-122.308;2022-09-09T14:02:16;100022.03;;;12.77;96.42
69058;BME280;56128;37.534;-122.308;2022-09-09T14:04:43;100023.13;;;12.85;97.89
69058;BME280;56128;37.534;-122.308;2022-09-09T14:07:14;100016.78;;;12.86;97.55
69058;BME280;56128;37.534;-122.308;2022-09-09T14:09:41;100024.00;;;12.85;97.06
69058;BME280;56128;37.534;-122.308;2022-09-09T14:12:11;100027.06;;;12.90;97.03
69058;BME280;56128;37.534;-122.308;2022-09-09T14:14:56;100027.47;;;12.95;96.32
69058;BME280;56128;37.534;-122.308;2022-09-09T14:17:22;100026.69;;;13.03;96.68
69058;BME280;56128;37.534;-122.308;2022-09-09T14:19:48;100028.06;;;13.07;96.78
69058;BME280;56128;37.534;-122.308;2022-09-09T14:22:14;100029.47;;;13.11;96.72
69058;BME280;56128;37.534;-122.308;2022-09-09T14:24:40;100018.66;;;13.21;96.97
69058;BME280;56128;37.534;-122.308;2022-09-09T14:27:27;100033.53;;;13.34;96.81
69058;BME280;56128;37.534;-122.308;2022-09-09T14:29:53;100027.31;;;13.43;96.69
69058;BME280;56128;37.534;-122.308;2022-09-09T14:32:20;100017.59;;;13.50;96.51
69058;BME280;56128;37.534;-122.308;2022-09-09T14:34:46;100025.97;;;13.65;95.77
69058;BME280;56128;37.534;-122.308;2022-09-09T14:37:16;100024.34;;;13.72;95.70
69058;BME280;56128;37.534;-122.308;2022-09-09T14:39:42;100026.31;;;13.88;95.32
69058;BME280;56128;37.534;-122.308;2022-09-09T14:42:16;100017.47;;;13.96;95.44
69058;BME280;56128;37.534;-122.308;2022-09-09T14:44:42;100037.75;;;14.17;94.93